Metar Cercanos

 

LEPA - Palma De Mallorc, Spain
Distance from station: ONO 38km
Actualización: 18/06/2018 09:30
Few Clouds
Few Clouds
 Viento del NE
Viento: NE 4 km/h
Temperatura: 24°C
Rocío: 19°C
Humedad: 74%
Barómetro: 1020 hPa
Clouds: Few Clouds
Visibility: 10 km
Cloud details: Few Clouds 762 m
2018/06/18 07:30 LEPA 180730Z 04002KT 9999 FEW025 24/19 Q1020 NOSIG
LEMH - Mahon/Menorca Is, Spain
Distance from station: ENE 105km
Actualización: 18/06/2018 09:30
Few Clouds
Few Clouds
 Viento del N
Viento: N 20 km/h
Temperatura: 22°C
Rocío: 15°C
Humedad: 65%
Barómetro: 1020 hPa
Clouds: Few Clouds
Visibility: 10 km
Cloud details: Few Clouds 762 m
2018/06/18 07:30 LEMH 180730Z 01011KT 330V030 9999 FEW025 22/15 Q1020
 
LEIB - Ibiza/Es Codola, Spain
Distance from station: OSO 165km
Actualización: 18/06/2018 09:30
Few Clouds
Few Clouds
 Viento del ESE
Viento: ESE 9 km/h
Temperatura: 24°C
Rocío: 19°C
Humedad: 74%
Barómetro: 1021 hPa
Clouds: Few Clouds
Visibility: 10 km
Cloud details: Few Clouds 914 m
2018/06/18 07:30 LEIB 180730Z 11005KT 070V160 9999 FEW030 24/19 Q1021 NOSIG
LEBL - Barcelona Airpor, Spain
Distance from station: NNO 225km
Actualización: 18/06/2018 09:30
Few Clouds
Few Clouds
 Viento del NO
Viento: NO 11 km/h
Temperatura: 23°C
Rocío: 17°C
Humedad: 69%
Barómetro: 1021 hPa
Clouds: Few Clouds
Visibility: 10 km
Cloud details: Few Clouds 671 m
2018/06/18 07:30 LEBL 180730Z 32006KT 250V360 9999 FEW022 23/17 Q1021 NOSIG
 
LEVC - Valencia (civ/Mi, Spain
Distance from station: NO 188km
Actualización: 18/06/2018 09:30
Despejado
Despejado
 Viento del ENE
Viento: ENE 17 km/h
Temperatura: 25°C
Rocío: 15°C
Humedad: 54%
Barómetro: 1021 hPa
Resumen: Despejado
Visibility: greater than 10 km
2018/06/18 07:30 LEVC 180730Z 07009KT CAVOK 25/15 Q1021 NOSIG
LEGE - Gerona/Costa Bra, Spain
Distance from station: N 276km
Actualización: 18/06/2018 09:30
Despejado
Despejado
 Viento del E
Viento: E 6 km/h
Temperatura: 21°C
Rocío: 16°C
Humedad: 73%
Barómetro: 1020 hPa
Resumen: Despejado
Visibility: greater than 10 km
2018/06/18 07:30 LEGE 180730Z 08003KT 020V130 CAVOK 21/16 Q1020
 
LEAL - Alicante/El Alte, Spain
Distance from station: OSO 344km
Actualización: 18/06/2018 09:30
Despejado
Despejado
 Viento del varies
Viento: varies 4 km/h
Temperatura: 24°C
Rocío: 14°C
Humedad: 54%
Barómetro: 1020 hPa
Resumen: Despejado
Visibility: greater than 10 km
2018/06/18 07:30 LEAL 180730Z VRB02KT CAVOK 24/14 Q1020 NOSIG
LEAM - Almeria Airport, Spain
Distance from station: SSO 56km
Actualización: 18/06/2018 09:30
Despejado
Despejado
 Viento del varies
Viento: varies 7 km/h
Temperatura: 28°C
Rocío: 11°C
Humedad: 35%
Barómetro: 1019 hPa
Resumen: Despejado
Visibility: greater than 10 km
2018/06/18 07:30 LEAM 180730Z VRB04KT CAVOK 28/11 Q1019
 
LEZG - Zaragoza (mil/Ci, Spain
Distance from station: NO 431km
Actualización: 18/06/2018 09:30
Few Clouds
Few Clouds
 Viento del NO
Viento: NO 37 km/h, Racha: 56 km/h
Temperatura: 20°C
Rocío: 11°C
Humedad: 56%
Barómetro: 1023 hPa
Clouds: Few Clouds
Visibility: 10 km
Cloud details: Few Clouds 1372 m
2018/06/18 07:30 LEZG 180730Z 31020G30KT 9999 FEW045 20/11 Q1023
LEMD - Madrid/Barajas, Spain
Distance from station: ONO 234km
Actualización: 18/06/2018 09:30
Despejado
Despejado
 Viento del NE
Viento: NE 11 km/h
Temperatura: 22°C
Rocío: 10°C
Humedad: 47%
Barómetro: 1023 hPa
Resumen: Despejado
Visibility: greater than 10 km
2018/06/18 07:30 LEMD 180730Z 05006KT 010V080 CAVOK 22/10 Q1023 NOSIG
 
LEGR - Granada Airport, Spain
Distance from station: OSO 62km
Actualización: 18/06/2018 09:30
Despejado
Despejado
 Viento del varies
Viento: varies 4 km/h
Temperatura: 22°C
Rocío: 12°C
Humedad: 53%
Barómetro: 1021 hPa
Resumen: Despejado
Visibility: greater than 10 km
2018/06/18 07:30 LEGR 180730Z VRB02KT CAVOK 22/12 Q1021
LEMG - Malaga (civ/Mil), Spain
Distance from station: OSO 227km
Actualización: 18/06/2018 09:30
Despejado
Despejado
 Viento del ONO
Viento: ONO 13 km/h
Temperatura: 24°C
Rocío: 12°C
Humedad: 47%
Barómetro: 1019 hPa
Resumen: Despejado
Visibility: greater than 10 km
2018/06/18 07:30 LEMG 180730Z 30007KT CAVOK 24/12 Q1019 NOSIG
 
LEZL - Sevilla (civ/Mil, Spain
Distance from station: S 318km
Actualización: 18/06/2018 09:30
Despejado
Despejado
 Viento del ENE
Viento: ENE 6 km/h
Temperatura: 26°C
Rocío: 13°C
Humedad: 45%
Barómetro: 1017 hPa
Resumen: Despejado
Visibility: greater than 10 km
2018/06/18 07:30 LEZL 180730Z 06003KT 010V100 CAVOK 26/13 Q1017 NOSIG
LEVT - Vitoria, Spain
Distance from station: NO 226km
Actualización: 18/06/2018 09:30
Muy nuboso
Muy nuboso
 Viento del calm
Viento: Calma
Temperatura: 13°C
Rocío: 11°C
Humedad: 88%
Barómetro: 1028 hPa
Clouds: Muy nuboso
Visibility: 10 km
Cloud details: Few Clouds 610 m
Muy nuboso 914 m
2018/06/18 07:30 LEVT 180730Z 00000KT 9999 FEW020 BKN030 13/11 Q1028
 
LEBB - Bilbao/Sondica, Spain
Distance from station: NNO 235km
Actualización: 18/06/2018 09:30
Muy nuboso
Muy nuboso
 Viento del varies
Viento: varies 2 km/h
Temperatura: 18°C
Rocío: 15°C
Humedad: 83%
Barómetro: 1027 hPa
Clouds: Muy nuboso
Visibility: 10 km
Cloud details: Few Clouds 549 m
Muy nuboso 914 m
2018/06/18 07:30 LEBB 180730Z VRB01KT 9999 FEW018 BKN030 18/15 Q1027 NOSIG
LESO - San Sebastian/Fu, Spain
Distance from station: N 231km
Actualización: 18/06/2018 09:30
Cubierto
Cubierto
 Viento del OSO
Viento: OSO 9 km/h
Temperatura: 17°C
Rocío: 14°C
Humedad: 83%
Barómetro: 1027 hPa
Clouds: Cubierto
Visibility: 10 km
Cloud details: Cubierto 671 m
2018/06/18 07:30 LESO 180730Z 24005KT 200V280 9999 OVC022 17/14 Q1027
 
LEVD - Valladolid(Mil/C, Spain
Distance from station: ONO 239km
Actualización: 18/06/2018 09:30
Despejado
Despejado
 Viento del ENE
Viento: ENE 13 km/h
Temperatura: 16°C
Rocío: 9°C
Humedad: 63%
Barómetro: 1027 hPa
Resumen: Despejado
Visibility: greater than 10 km
2018/06/18 07:30 LEVD 180730Z 07007KT 040V110 CAVOK 16/09 Q1027
LESA - Salamanca (civ/M, Spain
Distance from station: ONO 349km
Actualización: 18/06/2018 09:30
Despejado
Despejado
 Viento del E
Viento: E 11 km/h
Temperatura: 18°C
Rocío: 11°C
Humedad: 64%
Barómetro: 1026 hPa
Resumen: Despejado
Visibility: greater than 10 km
2018/06/18 07:30 LESA 180730Z 09006KT 060V120 CAVOK 18/11 Q1026
 
LEXJ - Santander/Paraya, Spain
Distance from station: NNO 247km
Actualización: 18/06/2018 09:30
Parcialmente nuboso
Parcialmente nuboso
 Viento del SO
Viento: SO 9 km/h
Temperatura: 18°C
Rocío: 15°C
Humedad: 83%
Barómetro: 1027 hPa
Clouds: Parcialmente nuboso
Visibility: 10 km
Cloud details: Few Clouds 853 m
Parcialmente nuboso 1158 m
2018/06/18 07:30 LEXJ 180730Z 23005KT 190V260 9999 FEW028 SCT038 18/15 Q1027
LEAS - Asturias/Aviles, Spain
Distance from station: NO 214km
Actualización: 18/06/2018 09:30
Muy nuboso
Muy nuboso
 Viento del SO
Viento: SO 7 km/h
Temperatura: 17°C
Rocío: 14°C
Humedad: 83%
Barómetro: 1028 hPa
Clouds: Muy nuboso
Visibility: 10 km
Cloud details: Few Clouds 427 m
Muy nuboso 579 m
2018/06/18 07:30 LEAS 180730Z 22004KT 9999 FEW014 BKN019 17/14 Q1028 NOSIG
 
LECO - La Coruna/Alvedr, Spain
Distance from station: ONO 222km
Actualización: 18/06/2018 09:30
Muy nuboso
Muy nuboso
 Viento del N
Viento: N 6 km/h
Temperatura: 17°C
Rocío: 15°C
Humedad: 88%
Barómetro: 1027 hPa
Clouds: Muy nuboso
Visibility: 10 km
Cloud details: Few Clouds 183 m
Muy nuboso 366 m
2018/06/18 07:30 LECO 180730Z 36003KT 290V070 9999 FEW006 BKN012 17/15 Q1027 NOSIG
LEVX - Vigo/Peinador, Spain
Distance from station: O 214km
Actualización: 18/06/2018 09:30
Despejado
Despejado
 Viento del E
Viento: E 6 km/h
Temperatura: 21°C
Rocío: 15°C
Humedad: 69%
Barómetro: 1023 hPa
Resumen: Despejado
Visibility: greater than 10 km
2018/06/18 07:30 LEVX 180730Z 10003KT 050V150 CAVOK 21/15 Q1023 NOSIG